sensor_id;sensor_type;location;lat;lon;timestamp;pressure;altitude;pressure_sealevel;temperature;humidity
44988;BME280;35735;52.226;21.254;2023-04-10T00:02:38;101117.69;;;7.75;100.00
44988;BME280;35735;52.226;21.254;2023-04-10T00:07:38;101113.97;;;7.69;100.00
44988;BME280;35735;52.226;21.254;2023-04-10T00:12:39;101104.78;;;7.59;100.00
44988;BME280;35735;52.226;21.254;2023-04-10T00:17:40;101106.38;;;7.51;100.00
44988;BME280;35735;52.226;21.254;2023-04-10T00:22:40;101108.78;;;7.40;100.00
44988;BME280;35735;52.226;21.254;2023-04-10T00:27:41;101104.16;;;7.33;100.00
44988;BME280;35735;52.226;21.254;2023-04-10T00:32:41;101110.25;;;7.26;100.00
44988;BME280;35735;52.226;21.254;2023-04-10T00:37:42;101110.94;;;7.17;100.00
44988;BME280;35735;52.226;21.254;2023-04-10T00:42:42;101122.44;;;7.11;100.00
44988;BME280;35735;52.226;21.254;2023-04-10T00:47:43;101117.81;;;7.05;100.00
44988;BME280;35735;52.226;21.254;2023-04-10T00:52:45;101130.03;;;6.94;100.00
44988;BME280;35735;52.226;21.254;2023-04-10T00:57:46;101134.34;;;6.87;100.00
44988;BME280;35735;52.226;21.254;2023-04-10T01:02:47;101128.59;;;6.72;100.00
44988;BME280;35735;52.226;21.254;2023-04-10T01:07:53;101130.22;;;6.67;100.00
44988;BME280;35735;52.226;21.254;2023-04-10T01:13:37;101123.75;;;6.59;100.00
44988;BME280;35735;52.226;21.254;2023-04-10T01:18:47;101128.87;;;6.51;100.00
44988;BME280;35735;52.226;21.254;2023-04-10T01:24:14;101130.41;;;6.41;100.00
44988;BME280;35735;52.226;21.254;2023-04-10T01:29:19;101130.25;;;6.35;100.00
44988;BME280;35735;52.226;21.254;2023-04-10T01:34:23;101121.84;;;6.23;100.00
44988;BME280;35735;52.226;21.254;2023-04-10T01:39:26;101118.09;;;6.18;100.00
44988;BME280;35735;52.226;21.254;2023-04-10T01:44:29;101113.50;;;6.12;100.00
44988;BME280;35735;52.226;21.254;2023-04-10T01:49:31;101110.56;;;6.04;100.00
44988;BME280;35735;52.226;21.254;2023-04-10T01:54:32;101110.44;;;6.00;100.00
44988;BME280;35735;52.226;21.254;2023-04-10T01:59:33;101113.34;;;6.07;100.00
44988;BME280;35735;52.226;21.254;2023-04-10T02:04:33;101114.72;;;5.94;100.00
44988;BME280;35735;52.226;21.254;2023-04-10T02:09:59;101114.56;;;5.88;100.00
44988;BME280;35735;52.226;21.254;2023-04-10T02:15:04;101109.19;;;5.88;100.00
44988;BME280;35735;52.226;21.254;2023-04-10T02:20:07;101111.72;;;5.84;100.00
44988;BME280;35735;52.226;21.254;2023-04-10T02:25:09;101112.06;;;5.66;100.00
44988;BME280;35735;52.226;21.254;2023-04-10T02:30:10;101117.28;;;5.61;100.00
44988;BME280;35735;52.226;21.254;2023-04-10T02:35:11;101116.44;;;5.62;100.00
44988;BME280;35735;52.226;21.254;2023-04-10T02:40:11;101119.94;;;5.61;100.00
44988;BME280;35735;52.226;21.254;2023-04-10T02:45:12;101123.41;;;5.57;100.00
44988;BME280;35735;52.226;21.254;2023-04-10T02:50:12;101124.84;;;5.46;100.00
44988;BME280;35735;52.226;21.254;2023-04-10T02:55:13;101119.38;;;5.43;100.00
44988;BME280;35735;52.226;21.254;2023-04-10T03:00:14;101114.75;;;5.37;100.00
44988;BME280;35735;52.226;21.254;2023-04-10T03:05:14;101113.75;;;5.33;100.00
44988;BME280;35735;52.226;21.254;2023-04-10T03:10:15;101127.97;;;5.32;100.00
44988;BME280;35735;52.226;21.254;2023-04-10T03:15:16;101131.31;;;5.25;100.00
44988;BME280;35735;52.226;21.254;2023-04-10T03:20:17;101127.69;;;5.23;100.00
44988;BME280;35735;52.226;21.254;2023-04-10T03:25:17;101123.22;;;5.24;100.00
44988;BME280;35735;52.226;21.254;2023-04-10T03:30:18;101120.34;;;5.17;100.00
44988;BME280;35735;52.226;21.254;2023-04-10T03:35:18;101124.63;;;5.12;100.00
44988;BME280;35735;52.226;21.254;2023-04-10T03:40:19;101118.37;;;5.12;100.00
44988;BME280;35735;52.226;21.254;2023-04-10T03:45:20;101111.09;;;5.08;100.00
44988;BME280;35735;52.226;21.254;2023-04-10T03:50:21;101118.00;;;5.01;100.00
44988;BME280;35735;52.226;21.254;2023-04-10T03:55:21;101121.81;;;5.08;100.00
44988;BME280;35735;52.226;21.254;2023-04-10T04:00:23;101122.72;;;5.08;100.00
44988;BME280;35735;52.226;21.254;2023-04-10T04:05:24;101122.56;;;5.04;100.00
44988;BME280;35735;52.226;21.254;2023-04-10T04:10:24;101129.81;;;5.06;100.00
44988;BME280;35735;52.226;21.254;2023-04-10T04:15:25;101129.19;;;5.15;100.00
44988;BME280;35735;52.226;21.254;2023-04-10T04:20:25;101124.69;;;5.14;100.00
44988;BME280;35735;52.226;21.254;2023-04-10T04:25:26;101136.34;;;5.16;100.00
44988;BME280;35735;52.226;21.254;2023-04-10T04:30:27;101131.97;;;5.18;100.00
44988;BME280;35735;52.226;21.254;2023-04-10T04:35:27;101129.47;;;5.24;100.00
44988;BME280;35735;52.226;21.254;2023-04-10T04:40:28;101141.56;;;5.38;100.00
44988;BME280;35735;52.226;21.254;2023-04-10T04:45:28;101139.47;;;5.57;100.00
44988;BME280;35735;52.226;21.254;2023-04-10T04:50:29;101148.94;;;5.74;100.00
44988;BME280;35735;52.226;21.254;2023-04-10T04:55:29;101155.00;;;5.96;100.00
44988;BME280;35735;52.226;21.254;2023-04-10T05:00:30;101162.00;;;6.21;100.00
44988;BME280;35735;52.226;21.254;2023-04-10T05:05:31;101159.91;;;6.41;100.00
44988;BME280;35735;52.226;21.254;2023-04-10T05:10:31;101167.28;;;6.48;100.00
44988;BME280;35735;52.226;21.254;2023-04-10T05:15:32;101180.16;;;6.62;100.00
44988;BME280;35735;52.226;21.254;2023-04-10T05:20:35;101187.59;;;6.72;100.00
44988;BME280;35735;52.226;21.254;2023-04-10T05:25:36;101192.97;;;6.72;100.00
44988;BME280;35735;52.226;21.254;2023-04-10T05:30:37;101192.06;;;6.72;100.00
44988;BME280;35735;52.226;21.254;2023-04-10T05:35:37;101198.84;;;6.91;100.00
44988;BME280;35735;52.226;21.254;2023-04-10T05:40:38;101214.00;;;6.89;100.00
44988;BME280;35735;52.226;21.254;2023-04-10T05:45:38;101206.59;;;6.80;100.00
44988;BME280;35735;52.226;21.254;2023-04-10T05:50:39;101219.69;;;7.01;100.00
44988;BME280;35735;52.226;21.254;2023-04-10T05:55:39;101203.44;;;7.30;100.00
44988;BME280;35735;52.226;21.254;2023-04-10T06:00:40;101207.44;;;7.82;100.00
44988;BME280;35735;52.226;21.254;2023-04-10T06:05:41;101196.31;;;8.44;100.00
44988;BME280;35735;52.226;21.254;2023-04-10T06:10:41;101195.69;;;9.05;100.00
44988;BME280;35735;52.226;21.254;2023-04-10T06:15:42;101197.53;;;9.58;100.00
44988;BME280;35735;52.226;21.254;2023-04-10T06:20:42;101203.66;;;10.07;100.00
44988;BME280;35735;52.226;21.254;2023-04-10T06:25:43;101196.22;;;10.53;100.00
44988;BME280;35735;52.226;21.254;2023-04-10T06:30:44;101199.44;;;10.97;100.00
44988;BME280;35735;52.226;21.254;2023-04-10T06:35:44;101211.62;;;11.46;100.00
44988;BME280;35735;52.226;21.254;2023-04-10T06:40:45;101217.38;;;11.86;100.00
44988;BME280;35735;52.226;21.254;2023-04-10T06:45:45;101215.72;;;12.05;100.00
44988;BME280;35735;52.226;21.254;2023-04-10T06:50:46;101220.25;;;12.07;100.00
44988;BME280;35735;52.226;21.254;2023-04-10T06:55:47;101221.25;;;12.27;100.00
44988;BME280;35735;52.226;21.254;2023-04-10T07:00:47;101214.22;;;12.60;100.00
44988;BME280;35735;52.226;21.254;2023-04-10T07:05:48;101208.03;;;13.01;100.00
44988;BME280;35735;52.226;21.254;2023-04-10T07:10:48;101211.75;;;13.39;100.00
44988;BME280;35735;52.226;21.254;2023-04-10T07:15:49;101218.97;;;13.47;100.00
44988;BME280;35735;52.226;21.254;2023-04-10T07:20:50;101217.19;;;13.65;100.00
44988;BME280;35735;52.226;21.254;2023-04-10T07:25:50;101223.53;;;13.70;100.00
44988;BME280;35735;52.226;21.254;2023-04-10T07:30:51;101215.38;;;13.85;100.00
44988;BME280;35735;52.226;21.254;2023-04-10T07:35:51;101218.97;;;13.98;100.00
44988;BME280;35735;52.226;21.254;2023-04-10T07:40:55;101219.84;;;14.13;100.00
44988;BME280;35735;52.226;21.254;2023-04-10T07:45:56;101213.37;;;14.61;100.00
44988;BME280;35735;52.226;21.254;2023-04-10T07:50:57;101210.53;;;14.95;100.00
44988;BME280;35735;52.226;21.254;2023-04-10T07:55:58;101214.03;;;15.16;100.00
44988;BME280;35735;52.226;21.254;2023-04-10T08:00:58;101217.47;;;15.41;100.00
44988;BME280;35735;52.226;21.254;2023-04-10T08:05:59;101220.00;;;15.69;100.00
44988;BME280;35735;52.226;21.254;2023-04-10T08:10:59;101223.41;;;15.96;100.00
44988;BME280;35735;52.226;21.254;2023-04-10T08:16:00;101222.22;;;16.24;100.00
44988;BME280;35735;52.226;21.254;2023-04-10T08:21:00;101210.50;;;16.15;100.00
44988;BME280;35735;52.226;21.254;2023-04-10T08:26:01;101197.53;;;16.40;100.00
44988;BME280;35735;52.226;21.254;2023-04-10T08:31:02;101195.50;;;16.57;99.68
44988;BME280;35735;52.226;21.254;2023-04-10T08:36:03;101191.59;;;16.77;99.49
44988;BME280;35735;52.226;21.254;2023-04-10T08:41:05;101183.97;;;17.05;98.71
44988;BME280;35735;52.226;21.254;2023-04-10T08:46:05;101194.53;;;17.30;96.60
44988;BME280;35735;52.226;21.254;2023-04-10T08:51:08;101195.09;;;17.50;95.51
44988;BME280;35735;52.226;21.254;2023-04-10T08:56:15;101189.06;;;17.30;92.80
44988;BME280;35735;52.226;21.254;2023-04-10T09:01:18;101180.91;;;17.28;92.79
44988;BME280;35735;52.226;21.254;2023-04-10T09:06:20;101184.19;;;17.50;93.03
44988;BME280;35735;52.226;21.254;2023-04-10T09:11:21;101175.69;;;17.69;91.97
44988;BME280;35735;52.226;21.254;2023-04-10T09:16:27;101170.72;;;17.92;91.48
44988;BME280;35735;52.226;21.254;2023-04-10T09:21:28;101171.31;;;18.10;90.44
44988;BME280;35735;52.226;21.254;2023-04-10T09:26:32;101167.31;;;18.29;88.75
44988;BME280;35735;52.226;21.254;2023-04-10T09:31:37;101158.81;;;18.43;88.24
44988;BME280;35735;52.226;21.254;2023-04-10T09:36:39;101152.34;;;18.47;86.63
44988;BME280;35735;52.226;21.254;2023-04-10T09:41:51;101138.41;;;18.61;87.27
44988;BME280;35735;52.226;21.254;2023-04-10T09:46:52;101140.69;;;18.81;86.96
44988;BME280;35735;52.226;21.254;2023-04-10T09:51:53;101138.44;;;19.00;86.19
44988;BME280;35735;52.226;21.254;2023-04-10T09:56:54;101140.50;;;19.30;84.91
44988;BME280;35735;52.226;21.254;2023-04-10T10:01:55;101129.66;;;19.25;84.12
44988;BME280;35735;52.226;21.254;2023-04-10T10:06:56;101132.25;;;19.31;83.08
44988;BME280;35735;52.226;21.254;2023-04-10T10:11:57;101126.91;;;19.25;82.99
44988;BME280;35735;52.226;21.254;2023-04-10T10:17:00;101114.66;;;19.41;82.82
44988;BME280;35735;52.226;21.254;2023-04-10T10:22:05;101111.22;;;19.33;81.31
44988;BME280;35735;52.226;21.254;2023-04-10T10:27:08;101108.28;;;19.03;80.22
44988;BME280;35735;52.226;21.254;2023-04-10T10:32:10;101099.56;;;18.86;81.48
44988;BME280;35735;52.226;21.254;2023-04-10T10:37:12;101092.13;;;18.93;80.24
44988;BME280;35735;52.226;21.254;2023-04-10T10:42:39;101091.09;;;18.98;80.70
44988;BME280;35735;52.226;21.254;2023-04-10T10:47:50;101095.38;;;18.69;78.98
44988;BME280;35735;52.226;21.254;2023-04-10T10:52:52;101084.66;;;18.59;80.96
44988;BME280;35735;52.226;21.254;2023-04-10T10:57:54;101080.56;;;18.80;81.34
44988;BME280;35735;52.226;21.254;2023-04-10T11:08:07;101075.94;;;18.82;80.28
44988;BME280;35735;52.226;21.254;2023-04-10T11:13:15;101059.69;;;18.74;79.16
44988;BME280;35735;52.226;21.254;2023-04-10T11:18:17;101063.13;;;18.45;78.06
44988;BME280;35735;52.226;21.254;2023-04-10T11:23:17;101059.53;;;18.43;78.74
44988;BME280;35735;52.226;21.254;2023-04-10T11:28:35;101054.63;;;18.57;79.81
44988;BME280;35735;52.226;21.254;2023-04-10T11:33:36;101044.03;;;18.81;79.46
44988;BME280;35735;52.226;21.254;2023-04-10T11:38:37;101038.47;;;18.87;78.00
44988;BME280;35735;52.226;21.254;2023-04-10T11:43:38;101037.75;;;18.77;78.97
44988;BME280;35735;52.226;21.254;2023-04-10T11:48:38;101029.44;;;18.83;78.33
44988;BME280;35735;52.226;21.254;2023-04-10T11:53:39;101024.47;;;18.62;77.60
44988;BME280;35735;52.226;21.254;2023-04-10T11:58:40;101019.16;;;18.54;78.24
44988;BME280;35735;52.226;21.254;2023-04-10T12:03:42;101021.69;;;18.24;77.71
44988;BME280;35735;52.226;21.254;2023-04-10T12:08:44;101013.72;;;18.13;77.92
44988;BME280;35735;52.226;21.254;2023-04-10T12:13:46;101001.31;;;17.97;78.85
44988;BME280;35735;52.226;21.254;2023-04-10T12:18:48;100994.84;;;18.03;79.59
44988;BME280;35735;52.226;21.254;2023-04-10T12:23:49;100994.06;;;17.96;79.13
44988;BME280;35735;52.226;21.254;2023-04-10T12:28:54;100985.34;;;17.75;78.30
44988;BME280;35735;52.226;21.254;2023-04-10T12:33:56;100973.06;;;17.54;79.25
44988;BME280;35735;52.226;21.254;2023-04-10T12:38:58;100982.97;;;17.58;80.14
44988;BME280;35735;52.226;21.254;2023-04-10T12:44:11;100971.81;;;17.71;80.52
44988;BME280;35735;52.226;21.254;2023-04-10T12:49:15;100975.47;;;17.70;78.35
44988;BME280;35735;52.226;21.254;2023-04-10T12:54:34;100976.97;;;17.41;78.95
44988;BME280;35735;52.226;21.254;2023-04-10T12:59:35;100977.53;;;17.09;82.23
44988;BME280;35735;52.226;21.254;2023-04-10T13:04:35;100982.19;;;16.47;85.91
44988;BME280;35735;52.226;21.254;2023-04-10T13:09:36;100969.19;;;16.04;88.83
44988;BME280;35735;52.226;21.254;2023-04-10T13:14:37;100953.19;;;15.78;90.06
44988;BME280;35735;52.226;21.254;2023-04-10T13:19:37;100960.62;;;15.62;93.79
44988;BME280;35735;52.226;21.254;2023-04-10T13:24:38;100944.44;;;15.50;96.03
44988;BME280;35735;52.226;21.254;2023-04-10T13:29:40;100948.13;;;15.46;98.94
44988;BME280;35735;52.226;21.254;2023-04-10T13:34:41;100934.56;;;15.43;100.00
44988;BME280;35735;52.226;21.254;2023-04-10T13:39:41;100932.72;;;15.43;100.00
44988;BME280;35735;52.226;21.254;2023-04-10T13:44:42;100932.69;;;15.46;100.00
44988;BME280;35735;52.226;21.254;2023-04-10T13:49:42;100929.97;;;15.48;100.00
44988;BME280;35735;52.226;21.254;2023-04-10T13:54:43;100928.13;;;15.50;100.00
44988;BME280;35735;52.226;21.254;2023-04-10T13:59:43;100919.97;;;15.48;100.00
44988;BME280;35735;52.226;21.254;2023-04-10T14:04:44;100909.06;;;15.50;100.00
44988;BME280;35735;52.226;21.254;2023-04-10T14:09:45;100901.72;;;15.58;100.00
44988;BME280;35735;52.226;21.254;2023-04-10T14:14:45;100903.47;;;15.65;100.00
44988;BME280;35735;52.226;21.254;2023-04-10T14:19:46;100901.63;;;15.67;100.00
44988;BME280;35735;52.226;21.254;2023-04-10T14:24:46;100896.06;;;15.73;99.88
44988;BME280;35735;52.226;21.254;2023-04-10T14:29:47;100884.25;;;15.78;98.80
44988;BME280;35735;52.226;21.254;2023-04-10T14:34:48;100888.63;;;15.89;97.77
44988;BME280;35735;52.226;21.254;2023-04-10T14:39:48;100881.34;;;15.91;94.92
44988;BME280;35735;52.226;21.254;2023-04-10T14:44:49;100876.88;;;15.86;90.78
44988;BME280;35735;52.226;21.254;2023-04-10T14:49:49;100872.34;;;15.86;88.86
44988;BME280;35735;52.226;21.254;2023-04-10T14:54:50;100871.34;;;15.92;87.50
44988;BME280;35735;52.226;21.254;2023-04-10T14:59:51;100856.72;;;15.99;86.59
44988;BME280;35735;52.226;21.254;2023-04-10T15:04:51;100858.38;;;16.09;85.42
44988;BME280;35735;52.226;21.254;2023-04-10T15:09:55;100858.22;;;16.19;83.08
44988;BME280;35735;52.226;21.254;2023-04-10T15:14:56;100848.19;;;16.22;82.70
44988;BME280;35735;52.226;21.254;2023-04-10T15:19:56;100836.22;;;16.33;83.53
44988;BME280;35735;52.226;21.254;2023-04-10T15:24:57;100829.69;;;16.41;82.70
44988;BME280;35735;52.226;21.254;2023-04-10T15:29:57;100835.88;;;16.51;82.92
44988;BME280;35735;52.226;21.254;2023-04-10T15:34:58;100813.94;;;16.59;82.33
44988;BME280;35735;52.226;21.254;2023-04-10T15:39:59;100816.56;;;16.63;81.68
44988;BME280;35735;52.226;21.254;2023-04-10T15:44:59;100809.22;;;16.67;81.82
44988;BME280;35735;52.226;21.254;2023-04-10T15:50:00;100810.22;;;16.63;82.02
44988;BME280;35735;52.226;21.254;2023-04-10T15:55:00;100805.66;;;16.63;83.49
44988;BME280;35735;52.226;21.254;2023-04-10T16:00:01;100809.31;;;16.64;83.46
44988;BME280;35735;52.226;21.254;2023-04-10T16:05:05;100816.75;;;16.56;83.08
44988;BME280;35735;52.226;21.254;2023-04-10T16:10:06;100820.63;;;16.41;82.56
44988;BME280;35735;52.226;21.254;2023-04-10T16:15:07;100812.81;;;16.21;82.45
44988;BME280;35735;52.226;21.254;2023-04-10T16:20:08;100814.75;;;16.12;82.87
44988;BME280;35735;52.226;21.254;2023-04-10T16:25:08;100807.56;;;16.08;83.50
44988;BME280;35735;52.226;21.254;2023-04-10T16:30:09;100808.41;;;16.12;83.16
44988;BME280;35735;52.226;21.254;2023-04-10T16:35:10;100803.00;;;16.10;83.18
44988;BME280;35735;52.226;21.254;2023-04-10T16:40:11;100799.34;;;16.11;82.75
44988;BME280;35735;52.226;21.254;2023-04-10T16:45:11;100798.47;;;16.09;82.56
44988;BME280;35735;52.226;21.254;2023-04-10T16:50:12;100803.91;;;16.09;82.55
44988;BME280;35735;52.226;21.254;2023-04-10T16:55:12;100808.56;;;16.03;82.64
44988;BME280;35735;52.226;21.254;2023-04-10T17:00:13;100806.00;;;15.92;82.50
44988;BME280;35735;52.226;21.254;2023-04-10T17:05:14;100798.88;;;15.85;82.81
44988;BME280;35735;52.226;21.254;2023-04-10T17:10:14;100804.53;;;15.68;83.63
44988;BME280;35735;52.226;21.254;2023-04-10T17:15:15;100802.00;;;15.55;84.89
44988;BME280;35735;52.226;21.254;2023-04-10T17:20:16;100799.44;;;15.43;86.22
44988;BME280;35735;52.226;21.254;2023-04-10T17:25:17;100800.56;;;15.27;87.14
44988;BME280;35735;52.226;21.254;2023-04-10T17:30:17;100803.50;;;15.10;87.56
44988;BME280;35735;52.226;21.254;2023-04-10T17:35:18;100797.44;;;14.88;88.22
44988;BME280;35735;52.226;21.254;2023-04-10T17:40:19;100801.22;;;14.74;88.51
44988;BME280;35735;52.226;21.254;2023-04-10T17:45:19;100799.56;;;14.56;87.95
44988;BME280;35735;52.226;21.254;2023-04-10T17:50:20;100799.75;;;14.36;88.22
44988;BME280;35735;52.226;21.254;2023-04-10T17:55:20;100799.84;;;14.29;88.52
44988;BME280;35735;52.226;21.254;2023-04-10T18:00:21;100799.00;;;14.23;89.14
44988;BME280;35735;52.226;21.254;2023-04-10T18:05:22;100795.44;;;14.18;89.77
44988;BME280;35735;52.226;21.254;2023-04-10T18:10:22;100790.97;;;14.08;90.04
44988;BME280;35735;52.226;21.254;2023-04-10T18:15:24;100791.12;;;13.86;90.44
44988;BME280;35735;52.226;21.254;2023-04-10T18:20:24;100795.88;;;13.57;91.37
44988;BME280;35735;52.226;21.254;2023-04-10T18:25:25;100798.72;;;13.37;92.31
44988;BME280;35735;52.226;21.254;2023-04-10T18:30:26;100796.09;;;13.15;93.05
44988;BME280;35735;52.226;21.254;2023-04-10T18:35:26;100788.91;;;12.97;94.27
44988;BME280;35735;52.226;21.254;2023-04-10T18:40:27;100790.75;;;12.92;94.80
44988;BME280;35735;52.226;21.254;2023-04-10T18:45:28;100785.34;;;12.86;95.33
44988;BME280;35735;52.226;21.254;2023-04-10T18:50:31;100789.00;;;12.78;95.79
44988;BME280;35735;52.226;21.254;2023-04-10T18:55:33;100776.41;;;12.65;95.91
44988;BME280;35735;52.226;21.254;2023-04-10T19:00:33;100774.62;;;12.49;96.57
44988;BME280;35735;52.226;21.254;2023-04-10T19:05:34;100782.78;;;12.33;96.97
44988;BME280;35735;52.226;21.254;2023-04-10T19:10:36;100771.97;;;12.02;97.62
44988;BME280;35735;52.226;21.254;2023-04-10T19:15:40;100777.34;;;11.85;98.40
44988;BME280;35735;52.226;21.254;2023-04-10T19:20:42;100771.03;;;11.82;99.15
44988;BME280;35735;52.226;21.254;2023-04-10T19:25:42;100763.81;;;11.70;99.48
44988;BME280;35735;52.226;21.254;2023-04-10T19:30:43;100770.13;;;11.55;100.00
44988;BME280;35735;52.226;21.254;2023-04-10T19:35:43;100766.50;;;11.52;100.00
44988;BME280;35735;52.226;21.254;2023-04-10T19:40:44;100764.69;;;11.49;100.00
44988;BME280;35735;52.226;21.254;2023-04-10T19:45:45;100764.66;;;11.32;100.00
44988;BME280;35735;52.226;21.254;2023-04-10T19:50:46;100752.91;;;11.19;100.00
44988;BME280;35735;52.226;21.254;2023-04-10T19:55:46;100756.50;;;11.04;100.00
44988;BME280;35735;52.226;21.254;2023-04-10T20:00:47;100762.72;;;10.94;100.00
44988;BME280;35735;52.226;21.254;2023-04-10T20:05:47;100754.59;;;10.80;100.00
44988;BME280;35735;52.226;21.254;2023-04-10T20:10:48;100741.91;;;10.67;100.00
44988;BME280;35735;52.226;21.254;2023-04-10T20:15:49;100743.69;;;10.59;100.00
44988;BME280;35735;52.226;21.254;2023-04-10T20:20:50;100730.12;;;10.45;100.00
44988;BME280;35735;52.226;21.254;2023-04-10T20:25:50;100730.00;;;10.26;100.00
44988;BME280;35735;52.226;21.254;2023-04-10T20:30:51;100723.59;;;10.13;100.00
44988;BME280;35735;52.226;21.254;2023-04-10T20:35:52;100726.28;;;10.13;100.00
44988;BME280;35735;52.226;21.254;2023-04-10T20:40:52;100724.38;;;9.97;100.00
44988;BME280;35735;52.226;21.254;2023-04-10T20:45:53;100719.75;;;9.76;100.00
44988;BME280;35735;52.226;21.254;2023-04-10T20:50:54;100717.84;;;9.67;100.00
44988;BME280;35735;52.226;21.254;2023-04-10T20:55:54;100723.16;;;9.55;100.00
44988;BME280;35735;52.226;21.254;2023-04-10T21:00:55;100727.53;;;9.43;100.00
44988;BME280;35735;52.226;21.254;2023-04-10T21:05:55;100717.63;;;9.39;100.00
44988;BME280;35735;52.226;21.254;2023-04-10T21:10:56;100717.47;;;9.27;100.00
44988;BME280;35735;52.226;21.254;2023-04-10T21:15:56;100720.09;;;9.18;100.00
44988;BME280;35735;52.226;21.254;2023-04-10T21:20:57;100724.47;;;9.06;100.00
44988;BME280;35735;52.226;21.254;2023-04-10T21:25:58;100707.31;;;8.98;100.00
44988;BME280;35735;52.226;21.254;2023-04-10T21:30:58;100717.12;;;8.93;100.00
44988;BME280;35735;52.226;21.254;2023-04-10T21:35:59;100707.16;;;8.84;100.00
44988;BME280;35735;52.226;21.254;2023-04-10T21:41:00;100709.81;;;8.80;100.00
44988;BME280;35735;52.226;21.254;2023-04-10T21:46:00;100703.44;;;8.73;100.00
44988;BME280;35735;52.226;21.254;2023-04-10T21:51:01;100689.91;;;8.64;100.00
44988;BME280;35735;52.226;21.254;2023-04-10T21:56:01;100689.66;;;8.47;100.00
44988;BME280;35735;52.226;21.254;2023-04-10T22:01:05;100690.38;;;8.35;100.00
44988;BME280;35735;52.226;21.254;2023-04-10T22:06:06;100694.72;;;8.24;100.00
44988;BME280;35735;52.226;21.254;2023-04-10T22:11:06;100683.91;;;8.19;100.00
44988;BME280;35735;52.226;21.254;2023-04-10T22:16:07;100669.47;;;8.12;100.00
44988;BME280;35735;52.226;21.254;2023-04-10T22:21:08;100679.19;;;8.03;100.00
44988;BME280;35735;52.226;21.254;2023-04-10T22:26:08;100670.13;;;7.96;100.00
44988;BME280;35735;52.226;21.254;2023-04-10T22:31:18;100675.50;;;7.96;100.00
44988;BME280;35735;52.226;21.254;2023-04-10T22:36:20;100673.69;;;7.95;100.00
44988;BME280;35735;52.226;21.254;2023-04-10T22:41:20;100669.12;;;7.89;100.00
44988;BME280;35735;52.226;21.254;2023-04-10T22:46:21;100668.16;;;7.84;100.00
44988;BME280;35735;52.226;21.254;2023-04-10T22:51:22;100668.84;;;7.71;100.00
44988;BME280;35735;52.226;21.254;2023-04-10T22:56:22;100660.47;;;7.51;100.00
44988;BME280;35735;52.226;21.254;2023-04-10T23:01:23;100654.91;;;7.40;100.00
44988;BME280;35735;52.226;21.254;2023-04-10T23:06:23;100645.81;;;7.30;100.00
44988;BME280;35735;52.226;21.254;2023-04-10T23:11:24;100640.41;;;7.27;100.00
44988;BME280;35735;52.226;21.254;2023-04-10T23:16:25;100638.47;;;7.18;100.00
44988;BME280;35735;52.226;21.254;2023-04-10T23:21:26;100631.16;;;7.11;100.00
44988;BME280;35735;52.226;21.254;2023-04-10T23:26:29;100622.88;;;6.97;100.00
44988;BME280;35735;52.226;21.254;2023-04-10T23:31:29;100622.66;;;6.86;100.00
44988;BME280;35735;52.226;21.254;2023-04-10T23:36:30;100602.87;;;6.78;100.00
44988;BME280;35735;52.226;21.254;2023-04-10T23:41:32;100602.56;;;6.63;100.00
44988;BME280;35735;52.226;21.254;2023-04-10T23:46:32;100583.59;;;6.52;100.00
44988;BME280;35735;52.226;21.254;2023-04-10T23:51:33;100581.72;;;6.48;100.00
44988;BME280;35735;52.226;21.254;2023-04-10T23:56:33;100578.09;;;6.46;100.00
